Time;durP1;ratioP1;P1;durP2;ratioP2;P2;SDS_P1;SDS_P2;PMS_P1;PMS_P2;Temp;Humidity;BMP_temperature;BMP_pressure;BME280_temperature;BME280_humidity;BME280_pressure;Samples;Min_cycle;Max_cycle;Signal;HPM_P1;HPM_P2
2024/03/17 00:00:18;;;;;;;9.60;2.65;;;7.80;91.60;;;;;;5027868;27;20098;-68
2024/03/17 00:03:04;;;;;;;8.60;2.75;;;7.80;91.70;;;;;;5025141;27;20046;-68
2024/03/17 00:05:57;;;;;;;9.32;2.80;;;7.80;91.70;;;;;;5026634;28;20511;-68
2024/03/17 00:08:42;;;;;;;7.53;3.03;;;7.70;91.70;;;;;;5025465;28;20044;-68
2024/03/17 00:11:29;;;;;;;10.57;3.10;;;7.70;91.70;;;;;;5026176;28;20042;-68
2024/03/17 00:14:14;;;;;;;16.65;3.83;;;7.70;91.80;;;;;;5020800;28;20401;-68
2024/03/17 00:17:01;;;;;;;9.70;3.28;;;7.80;91.80;;;;;;5057621;27;20396;-68
2024/03/17 00:19:47;;;;;;;8.75;2.50;;;7.80;91.80;;;;;;5019597;28;20387;-69
2024/03/17 00:22:39;;;;;;;8.40;2.65;;;7.80;91.80;;;;;;5022935;28;20041;-70
2024/03/17 00:25:25;;;;;;;11.63;2.97;;;7.80;91.90;;;;;;5021225;28;20140;-68
2024/03/17 00:28:12;;;;;;;15.35;4.10;;;7.80;91.90;;;;;;5017122;28;20521;-68
2024/03/17 00:30:57;;;;;;;8.82;2.92;;;7.70;92.00;;;;;;5025342;28;20102;-68
2024/03/17 00:33:44;;;;;;;11.35;3.95;;;7.70;92.00;;;;;;5022936;28;20405;-67
2024/03/17 00:36:30;;;;;;;11.60;3.60;;;7.70;92.00;;;;;;5026428;28;20037;-66
2024/03/17 00:39:17;;;;;;;7.97;2.88;;;7.60;92.20;;;;;;5019312;28;20117;-67
2024/03/17 00:42:03;;;;;;;10.48;3.10;;;7.60;92.00;;;;;;5028258;28;20116;-66
2024/03/17 00:44:49;;;;;;;13.23;3.95;;;7.60;92.00;;;;;;5031862;28;20057;-67
2024/03/17 00:47:35;;;;;;;8.32;2.72;;;7.60;92.10;;;;;;5023165;28;20037;-67
2024/03/17 00:50:21;;;;;;;9.15;3.15;;;7.60;92.10;;;;;;5021971;28;20071;-66
2024/03/17 00:53:07;;;;;;;9.68;2.95;;;7.50;92.10;;;;;;5026000;28;20041;-66
2024/03/17 00:55:54;;;;;;;14.20;2.53;;;7.50;92.20;;;;;;5088580;27;20045;-67
2024/03/17 00:58:41;;;;;;;11.60;2.72;;;7.50;92.20;;;;;;5034646;27;20050;-68
2024/03/17 01:01:27;;;;;;;7.13;2.35;;;7.50;92.30;;;;;;5026861;27;20095;-68
2024/03/17 01:04:13;;;;;;;8.43;2.90;;;7.50;92.30;;;;;;5097520;28;20335;-69
2024/03/17 01:06:59;;;;;;;8.05;2.88;;;7.50;92.20;;;;;;5105447;28;20074;-69
2024/03/17 01:09:48;;;;;;;8.88;3.22;;;7.50;92.30;;;;;;5099331;28;20039;-69
2024/03/17 01:12:35;;;;;;;9.27;3.03;;;7.50;92.30;;;;;;5101814;28;20145;-69
2024/03/17 01:15:21;;;;;;;9.68;3.10;;;7.40;92.30;;;;;;5103581;28;20040;-69
2024/03/17 01:18:07;;;;;;;6.93;2.70;;;7.30;92.40;;;;;;5100979;28;20137;-69
2024/03/17 01:20:53;;;;;;;13.70;3.75;;;7.30;92.40;;;;;;5100519;27;20541;-69
2024/03/17 01:23:39;;;;;;;11.35;2.50;;;7.40;92.40;;;;;;5109017;28;20564;-69
2024/03/17 01:26:25;;;;;;;10.57;3.00;;;7.30;92.40;;;;;;5097531;28;20043;-68
2024/03/17 01:29:11;;;;;;;8.60;2.85;;;7.30;92.40;;;;;;5101696;28;20047;-68
2024/03/17 01:31:57;;;;;;;10.77;2.58;;;7.30;92.40;;;;;;5105396;28;20043;-68
2024/03/17 01:34:43;;;;;;;15.20;3.35;;;7.30;92.50;;;;;;5100654;28;20044;-68
2024/03/17 01:37:31;;;;;;;12.77;3.17;;;7.30;92.50;;;;;;5100381;28;20128;-68
2024/03/17 01:40:17;;;;;;;7.85;2.85;;;7.30;92.60;;;;;;5108960;28;20047;-67
2024/03/17 01:43:04;;;;;;;8.02;2.85;;;7.30;92.70;;;;;;5102988;28;20058;-67
2024/03/17 01:45:50;;;;;;;8.38;2.97;;;7.20;92.70;;;;;;5110918;28;20040;-67
2024/03/17 01:48:36;;;;;;;11.13;2.83;;;7.20;92.70;;;;;;5101627;28;20070;-68
2024/03/17 01:51:23;;;;;;;6.40;2.83;;;7.20;92.80;;;;;;5106033;28;20373;-67
2024/03/17 01:54:09;;;;;;;8.07;3.05;;;7.20;92.80;;;;;;5110321;28;20051;-67
2024/03/17 01:56:55;;;;;;;9.48;2.47;;;7.20;92.80;;;;;;5109916;28;20040;-68
2024/03/17 01:59:41;;;;;;;10.02;3.55;;;7.20;92.90;;;;;;5103904;28;20095;-68
2024/03/17 02:02:27;;;;;;;15.10;3.22;;;7.20;92.90;;;;;;5058826;28;20129;-68
2024/03/17 02:05:13;;;;;;;11.13;3.97;;;7.10;92.80;;;;;;5060326;28;20047;-68
2024/03/17 02:08:00;;;;;;;10.35;3.22;;;7.10;92.90;;;;;;5027744;28;20046;-68
2024/03/17 02:10:51;;;;;;;12.13;3.50;;;7.20;92.90;;;;;;5032487;28;20046;-68
2024/03/17 02:13:37;;;;;;;11.30;3.30;;;7.20;93.10;;;;;;5040285;28;20038;-68
2024/03/17 02:16:24;;;;;;;12.07;2.78;;;7.20;93.00;;;;;;5046993;28;20047;-68
2024/03/17 02:19:10;;;;;;;8.73;3.28;;;7.20;93.00;;;;;;5016144;28;20048;-67
2024/03/17 02:21:57;;;;;;;5.15;2.50;;;7.10;93.00;;;;;;5025978;28;20462;-67
2024/03/17 02:24:43;;;;;;;7.75;3.25;;;7.10;93.10;;;;;;5026903;28;20413;-67
2024/03/17 02:27:29;;;;;;;9.02;2.50;;;7.10;93.30;;;;;;5026340;28;20052;-67
2024/03/17 02:30:15;;;;;;;9.98;3.20;;;7.20;93.10;;;;;;5031345;28;20122;-67
2024/03/17 02:33:01;;;;;;;15.43;3.58;;;7.10;93.10;;;;;;5021766;28;20048;-66
2024/03/17 02:35:47;;;;;;;11.63;3.35;;;7.10;93.10;;;;;;5011612;28;20050;-66
2024/03/17 02:41:42;;;;;;;10.57;2.83;;;7.10;93.10;;;;;;5020194;28;20067;-66
2024/03/17 02:44:30;;;;;;;9.90;3.22;;;7.10;93.10;;;;;;5024242;28;20299;-66
2024/03/17 02:47:16;;;;;;;6.20;2.50;;;7.00;93.10;;;;;;5088163;27;20091;-67
2024/03/17 02:50:02;;;;;;;9.98;2.90;;;7.00;93.10;;;;;;5025621;28;20486;-66
2024/03/17 02:52:48;;;;;;;8.25;2.72;;;6.90;93.10;;;;;;5027188;28;20049;-67
2024/03/17 02:55:34;;;;;;;9.35;3.75;;;6.90;93.20;;;;;;5025851;27;20120;-67
2024/03/17 02:58:20;;;;;;;10.20;3.22;;;6.90;93.20;;;;;;5020532;28;20094;-67
2024/03/17 03:01:06;;;;;;;6.05;2.88;;;6.90;93.20;;;;;;5091993;27;20450;-66
2024/03/17 03:03:52;;;;;;;7.35;2.42;;;6.90;93.30;;;;;;5017734;28;20077;-66
2024/03/17 03:06:38;;;;;;;8.63;3.33;;;6.90;93.30;;;;;;5032712;27;20048;-67
2024/03/17 03:09:31;;;;;;;8.05;3.17;;;6.90;93.30;;;;;;5030590;28;20052;-66
2024/03/17 03:12:17;;;;;;;7.57;3.22;;;6.80;93.30;;;;;;5019288;28;20037;-66
2024/03/17 03:15:03;;;;;;;8.82;2.47;;;6.80;93.30;;;;;;5018539;28;20050;-69
2024/03/17 03:17:49;;;;;;;8.43;3.50;;;6.80;93.40;;;;;;5036104;27;20416;-68
2024/03/17 03:20:35;;;;;;;9.68;2.83;;;6.70;93.60;;;;;;5017567;28;20041;-68
2024/03/17 03:23:21;;;;;;;10.35;3.28;;;6.80;93.40;;;;;;5025807;28;20053;-67
2024/03/17 03:26:09;;;;;;;12.18;4.07;;;6.70;93.50;;;;;;5033829;27;20429;-68
2024/03/17 03:28:55;;;;;;;9.73;2.67;;;6.70;93.50;;;;;;5054041;27;20089;-68
2024/03/17 03:31:42;;;;;;;5.43;2.22;;;6.60;93.60;;;;;;5028243;28;20045;-68
2024/03/17 03:34:28;;;;;;;9.45;2.30;;;6.60;93.60;;;;;;5015798;28;20148;-68
2024/03/17 03:37:14;;;;;;;8.25;2.85;;;6.60;93.70;;;;;;5011796;28;20042;-68
2024/03/17 03:40:00;;;;;;;11.73;2.70;;;6.60;93.80;;;;;;5033832;27;20409;-68
2024/03/17 03:42:47;;;;;;;11.15;3.03;;;6.50;93.80;;;;;;5027307;28;20044;-68
2024/03/17 03:45:35;;;;;;;12.40;2.92;;;6.50;93.80;;;;;;5028918;27;20462;-68
2024/03/17 03:48:21;;;;;;;7.15;2.65;;;6.50;93.80;;;;;;5018560;28;20046;-68
2024/03/17 03:51:10;;;;;;;8.55;2.65;;;6.50;93.80;;;;;;5018083;28;20066;-67
2024/03/17 03:53:56;;;;;;;9.77;3.00;;;6.50;93.90;;;;;;5067914;28;20042;-67
2024/03/17 03:56:42;;;;;;;11.52;4.25;;;6.40;93.90;;;;;;5033648;28;20466;-67
2024/03/17 03:59:29;;;;;;;10.20;3.00;;;6.40;93.90;;;;;;5035923;27;20433;-66
2024/03/17 04:02:14;;;;;;;6.93;2.72;;;6.40;93.90;;;;;;5025069;28;20060;-67
2024/03/17 04:05:00;;;;;;;8.18;2.13;;;6.40;94.00;;;;;;5040467;28;20522;-67
2024/03/17 04:07:49;;;;;;;12.20;3.28;;;6.40;94.00;;;;;;5018768;28;20029;-67
2024/03/17 04:10:38;;;;;;;8.68;2.97;;;6.40;94.10;;;;;;5028055;28;20038;-68
2024/03/17 04:13:24;;;;;;;15.75;3.47;;;6.40;94.10;;;;;;5031737;27;20065;-66
2024/03/17 04:16:10;;;;;;;9.23;3.38;;;6.40;94.10;;;;;;5029209;28;20498;-67
2024/03/17 04:18:56;;;;;;;11.30;3.45;;;6.40;94.20;;;;;;5020808;28;20025;-68
2024/03/17 04:21:42;;;;;;;10.73;3.20;;;6.40;94.20;;;;;;5022495;28;20056;-68
2024/03/17 04:24:28;;;;;;;10.88;2.97;;;6.40;94.20;;;;;;5038915;27;20043;-68
2024/03/17 04:27:14;;;;;;;12.40;3.55;;;6.30;94.30;;;;;;5027836;28;20037;-68
2024/03/17 04:30:02;;;;;;;11.07;3.75;;;6.30;94.40;;;;;;5029109;28;20045;-67
2024/03/17 04:32:48;;;;;;;8.50;2.47;;;6.20;94.40;;;;;;5012194;28;20397;-67
2024/03/17 04:35:41;;;;;;;12.52;2.55;;;6.20;94.50;;;;;;5020420;27;20468;-67
2024/03/17 04:38:27;;;;;;;7.30;2.67;;;6.20;94.60;;;;;;5022117;27;20046;-68
2024/03/17 04:41:18;;;;;;;11.20;2.75;;;6.30;94.60;;;;;;5026166;28;20037;-69
2024/03/17 04:44:06;;;;;;;8.68;2.53;;;6.30;94.70;;;;;;5030400;28;20094;-69
2024/03/17 04:46:54;;;;;;;6.18;2.38;;;6.30;94.70;;;;;;5043672;27;20032;-68
2024/03/17 04:49:42;;;;;;;9.73;3.05;;;6.20;94.90;;;;;;5015271;28;20502;-67
2024/03/17 04:52:28;;;;;;;9.98;3.30;;;6.20;94.90;;;;;;5030047;28;20124;-68
2024/03/17 04:55:16;;;;;;;8.55;2.88;;;6.20;94.90;;;;;;5025964;28;20038;-67
2024/03/17 04:58:02;;;;;;;9.18;2.95;;;6.20;94.90;;;;;;5026101;28;20041;-68
2024/03/17 05:00:48;;;;;;;9.02;3.38;;;6.10;94.90;;;;;;5007325;28;20130;-69
2024/03/17 05:03:36;;;;;;;13.32;4.03;;;6.10;94.90;;;;;;5029991;28;20040;-68
2024/03/17 05:06:22;;;;;;;10.82;2.45;;;6.00;95.10;;;;;;5042513;28;20033;-69
2024/03/17 05:09:08;;;;;;;6.57;2.65;;;6.10;95.10;;;;;;5038464;28;20053;-69
2024/03/17 05:11:54;;;;;;;9.93;2.80;;;6.00;95.40;;;;;;5022125;28;20045;-68
2024/03/17 05:14:41;;;;;;;9.25;2.95;;;5.90;95.20;;;;;;5036074;27;20489;-68
2024/03/17 05:17:26;;;;;;;9.85;2.85;;;6.00;95.20;;;;;;5028052;28;20038;-68
2024/03/17 05:20:13;;;;;;;20.75;3.40;;;6.00;95.20;;;;;;5018942;28;20041;-68
2024/03/17 05:22:59;;;;;;;8.00;2.88;;;6.00;95.20;;;;;;5024208;28;20045;-77
2024/03/17 05:25:55;;;;;;;6.75;2.28;;;6.00;95.20;;;;;;5013947;28;20046;-67
2024/03/17 05:28:41;;;;;;;;;;;6.00;95.20;;;;;;5020825;28;20045;-64
2024/03/17 05:31:27;;;;;;;6.70;2.55;;;6.00;95.20;;;;;;5016601;28;19916;-65
2024/03/17 05:34:13;;;;;;;11.02;3.35;;;5.90;95.40;;;;;;5027580;28;20493;-66
2024/03/17 05:36:59;;;;;;;8.55;3.08;;;5.90;95.30;;;;;;5020245;28;20120;-65
2024/03/17 05:39:46;;;;;;;10.45;3.33;;;5.90;95.40;;;;;;5022029;28;20080;-65
2024/03/17 05:42:32;;;;;;;9.27;2.70;;;5.90;95.50;;;;;;5018851;28;20038;-66
2024/03/17 05:45:18;;;;;;;6.53;2.85;;;5.90;95.40;;;;;;5024679;28;20041;-65
2024/03/17 05:48:05;;;;;;;11.32;3.72;;;5.90;95.50;;;;;;5026051;28;20090;-66
2024/03/17 05:50:51;;;;;;;14.63;3.83;;;5.90;95.50;;;;;;5027342;28;20476;-65
2024/03/17 05:53:41;;;;;;;7.70;3.05;;;6.00;95.60;;;;;;5019979;28;20050;-64
2024/03/17 05:56:27;;;;;;;9.88;3.65;;;6.00;95.50;;;;;;5013809;28;20080;-65
2024/03/17 05:59:19;;;;;;;12.55;3.30;;;6.00;95.50;;;;;;5017495;28;20098;-65
2024/03/17 11:05:55;;;;;;;5.05;1.70;;;11.20;85.80;;;;;;5080473;27;20126;-67
2024/03/17 11:08:42;;;;;;;4.60;1.73;;;11.20;84.90;;;;;;5019434;27;20358;-66
2024/03/17 11:11:42;;;;;;;4.82;1.42;;;11.20;84.30;;;;;;5019622;28;20136;-69
2024/03/17 11:14:29;;;;;;;4.10;1.80;;;11.10;83.40;;;;;;5053269;27;20126;-69
2024/03/17 11:17:19;;;;;;;8.65;2.72;;;11.20;83.20;;;;;;5031171;27;20041;-71
2024/03/17 11:20:15;;;;;;;4.43;1.17;;;11.20;83.10;;;;;;5023764;27;20124;-71
2024/03/17 11:23:01;;;;;;;5.68;2.25;;;11.30;83.50;;;;;;5039452;27;20080;-72
2024/03/17 11:25:53;;;;;;;4.18;2.17;;;11.30;82.90;;;;;;5029643;28;20515;-71
2024/03/17 11:28:43;;;;;;;5.45;1.50;;;11.40;82.90;;;;;;5021899;28;20037;-71
2024/03/17 11:31:43;;;;;;;5.35;2.03;;;11.40;82.70;;;;;;5021143;27;20138;-70
2024/03/17 11:34:34;;;;;;;3.95;1.50;;;11.40;81.80;;;;;;5026077;28;20101;-70
2024/03/17 11:37:42;;;;;;;5.70;1.90;;;11.30;81.30;;;;;;5023870;28;20037;-67
2024/03/17 11:40:29;;;;;;;5.20;1.75;;;11.10;80.20;;;;;;5025765;27;20038;-71
2024/03/17 11:43:17;;;;;;;4.70;1.90;;;11.00;80.80;;;;;;5028189;27;20047;-70
2024/03/17 11:46:03;;;;;;;4.18;1.60;;;11.00;81.10;;;;;;5014599;28;20405;-69
2024/03/17 11:48:50;;;;;;;4.07;1.83;;;10.90;81.00;;;;;;5028210;28;20045;-69
2024/03/17 11:51:39;;;;;;;6.25;1.55;;;10.90;80.90;;;;;;5031343;27;20449;-69
2024/03/17 11:54:33;;;;;;;3.00;1.40;;;10.90;80.80;;;;;;5027311;28;20080;-69
2024/03/17 11:57:24;;;;;;;4.72;1.90;;;10.80;80.40;;;;;;5064107;27;20054;-69
2024/03/17 12:00:23;;;;;;;3.08;1.50;;;10.70;79.80;;;;;;5025694;28;20062;-68
2024/03/17 12:03:11;;;;;;;4.50;1.42;;;10.70;80.80;;;;;;5026413;27;20593;-69
2024/03/17 12:05:57;;;;;;;5.22;2.13;;;10.70;80.20;;;;;;5045474;27;20053;-69
2024/03/17 12:08:43;;;;;;;7.25;2.25;;;10.70;80.20;;;;;;5083501;27;20120;-69
2024/03/17 12:11:30;;;;;;;4.55;1.83;;;10.70;80.00;;;;;;5021918;28;20485;-70
2024/03/17 12:14:20;;;;;;;6.28;1.95;;;10.70;79.70;;;;;;5018117;27;20037;-69
2024/03/17 12:17:11;;;;;;;4.78;1.95;;;10.70;79.60;;;;;;5024321;28;20488;-69
2024/03/17 12:20:00;;;;;;;5.95;2.20;;;10.70;79.40;;;;;;5010634;28;20045;-69
2024/03/17 12:22:47;;;;;;;6.65;2.30;;;10.70;79.00;;;;;;5046045;27;20049;-70
2024/03/17 12:25:33;;;;;;;5.32;1.70;;;10.70;78.30;;;;;;5022698;28;20041;-70
2024/03/17 12:28:20;;;;;;;4.95;2.08;;;10.70;78.20;;;;;;5018281;28;20042;-65
2024/03/17 12:31:06;;;;;;;5.90;1.80;;;10.70;78.20;;;;;;5061631;27;20069;-65
2024/03/17 12:33:52;;;;;;;4.07;1.73;;;10.80;77.80;;;;;;5021624;28;20045;-66
2024/03/17 12:36:39;;;;;;;3.60;1.63;;;10.90;78.10;;;;;;5014048;28;20117;-65
2024/03/17 12:39:27;;;;;;;3.42;1.83;;;11.00;78.00;;;;;;5010421;28;20433;-65
2024/03/17 12:42:22;;;;;;;2.55;1.40;;;11.00;78.00;;;;;;5028982;28;20042;-65
2024/03/17 12:45:09;;;;;;;3.15;1.75;;;11.10;78.20;;;;;;5022941;28;20531;-66
2024/03/17 12:47:56;;;;;;;4.03;1.38;;;11.30;78.00;;;;;;5025070;27;20037;-66
2024/03/17 12:50:46;;;;;;;4.32;1.33;;;11.30;77.50;;;;;;5017974;28;20046;-66
2024/03/17 12:53:32;;;;;;;6.32;1.45;;;11.50;77.60;;;;;;5024873;28;20049;-65
2024/03/17 13:02:45;;;;;;;5.25;1.58;;;12.00;77.50;;;;;;5032772;27;20060;-66
2024/03/17 13:05:32;;;;;;;2.55;1.20;;;12.10;75.70;;;;;;5027239;27;20055;-65
2024/03/17 13:08:20;;;;;;;5.45;2.30;;;12.10;74.90;;;;;;5025950;28;20044;-65
2024/03/17 13:11:09;;;;;;;7.97;2.20;;;12.10;75.20;;;;;;5030678;27;20048;-65
2024/03/17 13:13:55;;;;;;;6.07;2.03;;;12.00;74.70;;;;;;5017872;27;20037;-65
2024/03/17 13:16:41;;;;;;;4.22;1.88;;;12.00;75.00;;;;;;5042414;27;20128;-64
2024/03/17 13:19:27;;;;;;;4.82;2.00;;;12.00;75.10;;;;;;5025474;28;20041;-65
2024/03/17 13:22:15;;;;;;;3.88;1.65;;;11.90;74.40;;;;;;5030539;28;20056;-65
2024/03/17 13:25:00;;;;;;;4.95;1.58;;;12.00;74.90;;;;;;5019089;28;20063;-65
2024/03/17 13:27:48;;;;;;;3.28;1.40;;;11.90;74.30;;;;;;5023929;27;20032;-66
2024/03/17 13:30:36;;;;;;;5.53;1.55;;;11.90;74.80;;;;;;5019208;28;20041;-67
2024/03/17 13:33:23;;;;;;;4.50;1.80;;;12.00;74.40;;;;;;5018493;28;20054;-66
2024/03/17 13:36:09;;;;;;;4.65;1.48;;;12.10;74.90;;;;;;5023568;28;20041;-65
2024/03/17 13:38:55;;;;;;;4.88;1.52;;;12.20;74.90;;;;;;5032785;28;20037;-66
2024/03/17 13:41:41;;;;;;;5.85;1.85;;;12.30;74.90;;;;;;5023384;28;20071;-65
2024/03/17 13:44:27;;;;;;;5.18;1.63;;;12.50;74.50;;;;;;5015419;28;20383;-66
2024/03/17 13:47:17;;;;;;;5.22;1.70;;;12.60;74.20;;;;;;5018294;28;20073;-66
2024/03/17 13:50:10;;;;;;;4.82;1.48;;;12.70;74.00;;;;;;5022529;28;21063;-65
2024/03/17 13:52:56;;;;;;;3.83;1.40;;;12.70;73.20;;;;;;5015021;28;20041;-65
2024/03/17 13:55:42;;;;;;;5.05;1.77;;;12.70;73.00;;;;;;5022232;28;20124;-66
2024/03/17 13:58:28;;;;;;;2.22;1.23;;;12.80;73.50;;;;;;5026149;28;20048;-66
2024/03/17 14:01:14;;;;;;;2.85;1.50;;;12.90;73.60;;;;;;5028381;28;20463;-65
2024/03/17 14:04:00;;;;;;;5.78;1.40;;;12.90;72.90;;;;;;5023867;28;20053;-65
2024/03/17 14:06:48;;;;;;;3.10;1.85;;;12.80;72.20;;;;;;5096456;28;20190;-65
2024/03/17 14:09:34;;;;;;;5.45;1.50;;;12.70;72.00;;;;;;5101145;28;20040;-65
2024/03/17 14:12:20;;;;;;;5.20;1.80;;;12.70;72.60;;;;;;5107020;28;20115;-65
2024/03/17 14:15:10;;;;;;;4.15;1.70;;;12.80;72.50;;;;;;5106000;28;20571;-65
2024/03/17 14:17:56;;;;;;;3.60;1.55;;;12.80;71.40;;;;;;5093684;28;20032;-65
2024/03/17 14:20:42;;;;;;;5.15;1.63;;;12.80;70.90;;;;;;5102972;28;20040;-65
2024/03/17 14:23:29;;;;;;;1.83;1.15;;;12.80;71.30;;;;;;5098175;28;20465;-69
2024/03/17 14:26:15;;;;;;;3.80;1.30;;;12.80;70.70;;;;;;5107279;28;20131;-69
2024/03/17 14:29:02;;;;;;;2.88;1.10;;;12.90;71.10;;;;;;5101824;28;20097;-70
2024/03/17 14:31:48;;;;;;;2.95;1.42;;;12.90;70.50;;;;;;5094494;28;20057;-70
2024/03/17 14:34:38;;;;;;;3.10;1.20;;;13.00;70.80;;;;;;5119277;27;20204;-69
2024/03/17 14:37:24;;;;;;;3.53;1.60;;;12.90;69.90;;;;;;5103952;28;20440;-70
2024/03/17 14:40:20;;;;;;;4.35;1.10;;;13.00;70.30;;;;;;5115149;28;20542;-65
2024/03/17 14:43:06;;;;;;;4.72;2.28;;;13.10;70.00;;;;;;5109026;28;20653;-66
2024/03/17 14:45:52;;;;;;;3.63;1.65;;;13.30;69.70;;;;;;5104782;28;20044;-65
2024/03/17 14:48:38;;;;;;;3.15;1.35;;;13.20;69.00;;;;;;5104908;28;20043;-65
2024/03/17 14:51:24;;;;;;;3.97;1.95;;;13.20;69.50;;;;;;5110569;28;20046;-66
2024/03/17 14:54:11;;;;;;;3.05;1.70;;;13.10;69.00;;;;;;5108497;28;20071;-66
2024/03/17 14:56:57;;;;;;;4.72;1.95;;;12.90;69.50;;;;;;5104625;28;20503;-66
2024/03/17 14:59:43;;;;;;;4.82;2.10;;;12.90;69.60;;;;;;5090797;28;20287;-66
2024/03/17 15:02:29;;;;;;;4.03;1.75;;;12.90;69.70;;;;;;5104753;28;20035;-65
2024/03/17 15:05:15;;;;;;;3.00;1.50;;;12.80;69.90;;;;;;5075811;28;20067;-65
2024/03/17 15:08:02;;;;;;;4.70;2.00;;;12.90;70.10;;;;;;5028324;27;20038;-65
2024/03/17 15:10:47;;;;;;;4.43;1.88;;;13.00;70.00;;;;;;5035373;28;20080;-64
2024/03/17 15:13:35;;;;;;;5.32;1.50;;;13.00;69.40;;;;;;5053274;27;20121;-64
2024/03/17 15:16:21;;;;;;;4.82;1.65;;;12.90;69.70;;;;;;5064317;27;20049;-64
2024/03/17 15:19:07;;;;;;;4.35;1.50;;;13.00;70.20;;;;;;5019101;27;20041;-65
2024/03/17 15:21:53;;;;;;;4.85;1.65;;;13.00;69.90;;;;;;5050284;27;20141;-65
2024/03/17 15:24:39;;;;;;;3.72;1.80;;;13.00;70.10;;;;;;5028531;27;20049;-64
2024/03/17 15:27:25;;;;;;;3.00;1.60;;;13.00;69.70;;;;;;5053045;27;20098;-64
2024/03/17 15:30:14;;;;;;;2.95;1.90;;;13.00;70.00;;;;;;5020533;27;20509;-65
2024/03/17 15:33:00;;;;;;;4.18;2.00;;;12.90;69.90;;;;;;5043911;27;20069;-68
2024/03/17 15:35:46;;;;;;;3.42;1.60;;;12.80;70.40;;;;;;5023608;28;20046;-67
2024/03/17 15:38:39;;;;;;;4.47;1.98;;;12.70;69.60;;;;;;5061757;27;20090;-66
2024/03/17 15:41:25;;;;;;;4.82;1.83;;;12.60;69.40;;;;;;5028012;27;20069;-66
2024/03/17 15:44:11;;;;;;;3.10;1.65;;;12.40;69.50;;;;;;5053301;27;20037;-67
2024/03/17 15:46:57;;;;;;;4.43;1.73;;;12.30;69.60;;;;;;5030041;28;20048;-67
2024/03/17 15:49:44;;;;;;;5.57;1.63;;;12.30;69.50;;;;;;5078997;27;20481;-73
2024/03/17 15:52:30;;;;;;;7.22;2.30;;;12.30;69.90;;;;;;5043450;27;20149;-72
2024/03/17 15:55:17;;;;;;;2.63;1.30;;;12.30;69.90;;;;;;5042599;27;20041;-73
2024/03/17 15:58:04;;;;;;;4.85;2.10;;;12.30;69.80;;;;;;5027605;28;20049;-72
2024/03/17 16:00:50;;;;;;;4.13;1.75;;;12.20;69.60;;;;;;5041298;27;20117;-72
2024/03/17 16:03:40;;;;;;;2.97;1.35;;;12.20;69.40;;;;;;5024255;28;20604;-67
2024/03/17 16:06:26;;;;;;;3.30;1.70;;;12.20;69.60;;;;;;5020801;28;20057;-67
2024/03/17 16:09:14;;;;;;;4.90;2.42;;;12.30;69.70;;;;;;5035933;27;20048;-66
2024/03/17 16:12:01;;;;;;;3.58;1.90;;;12.30;69.70;;;;;;5023641;28;20063;-66
2024/03/17 16:14:50;;;;;;;3.47;1.95;;;12.20;69.70;;;;;;5027789;27;20042;-67
2024/03/17 16:17:39;;;;;;;4.90;2.50;;;12.10;69.60;;;;;;5023687;28;20420;-66
2024/03/17 16:20:47;;;;;;;4.63;2.58;;;12.00;69.50;;;;;;5020575;28;20052;-66
2024/03/17 16:23:38;;;;;;;5.43;3.10;;;11.90;70.10;;;;;;5019759;28;20137;-66
2024/03/17 16:26:25;;;;;;;5.03;2.30;;;11.70;69.80;;;;;;5019056;28;20490;-66
2024/03/17 16:29:14;;;;;;;5.95;3.28;;;11.60;69.90;;;;;;5042546;27;20041;-67
2024/03/17 16:32:00;;;;;;;10.77;7.38;;;11.50;69.90;;;;;;5028641;28;20044;-66
2024/03/17 16:34:46;;;;;;;19.48;13.35;;;11.40;70.10;;;;;;5019502;28;20049;-66
2024/03/17 16:37:32;;;;;;;9.63;5.57;;;11.30;70.20;;;;;;5018183;28;20505;-66
2024/03/17 16:40:18;;;;;;;5.53;3.90;;;11.20;70.30;;;;;;5023251;28;20451;-66
2024/03/17 16:43:04;;;;;;;10.48;7.03;;;11.10;70.50;;;;;;5019792;28;20033;-66
2024/03/17 16:46:16;;;;;;;9.07;6.43;;;11.00;70.60;;;;;;5028330;27;20048;-62
2024/03/17 16:49:06;;;;;;;12.63;7.53;;;10.80;71.40;;;;;;5039069;27;20110;-62
2024/03/17 16:51:52;;;;;;;14.43;11.43;;;10.70;71.30;;;;;;5019107;28;20048;-60
2024/03/17 16:54:38;;;;;;;8.38;5.63;;;10.40;71.50;;;;;;5025543;28;20090;-62
2024/03/17 16:57:24;;;;;;;4.35;2.40;;;10.30;71.70;;;;;;5014935;28;20073;-61
2024/03/17 17:00:16;;;;;;;7.80;4.22;;;10.30;72.00;;;;;;5016593;28;20033;-72
2024/03/17 17:03:03;;;;;;;6.72;4.50;;;10.20;72.30;;;;;;5051894;27;20053;-72
2024/03/17 17:05:49;;;;;;;4.45;3.60;;;10.10;72.90;;;;;;5021195;28;20080;-72
2024/03/17 17:08:35;;;;;;;10.15;5.28;;;10.00;72.60;;;;;;5010897;28;20048;-72
2024/03/17 17:11:21;;;;;;;8.13;4.78;;;9.90;72.80;;;;;;5011751;28;20440;-70
2024/03/17 17:14:10;;;;;;;4.00;2.58;;;9.80;73.00;;;;;;5017256;28;20041;-72
2024/03/17 17:16:56;;;;;;;6.80;4.43;;;9.80;73.20;;;;;;5008758;28;20038;-72
2024/03/17 17:19:42;;;;;;;7.90;4.88;;;9.70;73.30;;;;;;5025455;27;20044;-71
2024/03/17 17:22:28;;;;;;;7.95;4.53;;;9.60;73.40;;;;;;5006967;28;20046;-72
2024/03/17 17:25:15;;;;;;;9.77;7.85;;;9.60;73.60;;;;;;5017707;28;20081;-73
2024/03/17 17:28:02;;;;;;;5.47;3.05;;;9.50;73.80;;;;;;5011166;28;20052;-70
2024/03/17 17:30:49;;;;;;;7.47;3.83;;;9.40;73.90;;;;;;5015297;28;20038;-70
2024/03/17 17:33:36;;;;;;;5.43;2.45;;;9.30;74.00;;;;;;5017977;28;20042;-71
2024/03/17 17:36:23;;;;;;;5.20;2.15;;;9.30;74.10;;;;;;5017349;28;20042;-71
2024/03/17 17:39:12;;;;;;;13.63;9.88;;;9.20;74.10;;;;;;5075072;28;20034;-71
2024/03/17 17:41:58;;;;;;;8.80;6.55;;;9.20;74.20;;;;;;5014808;28;20034;-71
2024/03/17 17:44:44;;;;;;;5.97;3.75;;;9.10;74.20;;;;;;5017064;28;20049;-71
2024/03/17 17:47:30;;;;;;;3.50;2.33;;;9.10;74.40;;;;;;5025613;28;20029;-71
2024/03/17 17:50:17;;;;;;;7.18;5.25;;;9.00;74.40;;;;;;5020621;28;20077;-72
2024/03/17 17:53:04;;;;;;;6.97;4.05;;;9.00;74.60;;;;;;5029851;28;20097;-72
2024/03/17 17:55:50;;;;;;;5.75;3.25;;;8.90;74.70;;;;;;5014186;28;20052;-70
2024/03/17 17:58:38;;;;;;;4.93;2.83;;;9.00;74.80;;;;;;5025697;28;20040;-71
2024/03/17 18:01:24;;;;;;;6.00;3.40;;;8.90;74.90;;;;;;5075876;28;20124;-71
2024/03/17 18:04:10;;;;;;;4.30;2.80;;;8.90;75.00;;;;;;5019756;28;20098;-71
2024/03/17 18:06:57;;;;;;;5.88;3.15;;;8.90;75.10;;;;;;4996352;28;20397;-70
2024/03/17 18:09:42;;;;;;;5.53;3.85;;;8.90;75.20;;;;;;5007281;28;20486;-69
2024/03/17 18:12:28;;;;;;;6.00;3.47;;;8.90;75.20;;;;;;5007546;28;20479;-70
2024/03/17 18:15:14;;;;;;;6.20;3.60;;;8.80;75.30;;;;;;5011366;28;20045;-70
2024/03/17 18:18:01;;;;;;;5.78;3.28;;;8.80;75.40;;;;;;5006473;28;20072;-71
2024/03/17 18:20:55;;;;;;;6.28;4.20;;;8.80;75.50;;;;;;5023894;28;20050;-72
2024/03/17 18:23:42;;;;;;;5.68;3.80;;;8.80;75.70;;;;;;5011068;28;20072;-71
2024/03/17 18:26:28;;;;;;;6.90;4.18;;;8.70;75.70;;;;;;4996526;28;20452;-71
2024/03/17 18:29:14;;;;;;;5.45;3.45;;;8.80;75.80;;;;;;5006215;28;20098;-71
2024/03/17 18:32:01;;;;;;;5.13;3.13;;;8.70;75.80;;;;;;5011621;28;20178;-71
2024/03/17 18:34:47;;;;;;;5.72;2.67;;;8.70;75.90;;;;;;5009683;28;20048;-69
2024/03/17 18:37:34;;;;;;;6.95;3.90;;;8.70;75.90;;;;;;5011243;28;20045;-72
2024/03/17 18:40:20;;;;;;;8.32;4.38;;;8.60;76.00;;;;;;5002431;28;20046;-71
2024/03/17 18:43:07;;;;;;;5.07;2.92;;;8.60;76.20;;;;;;4991201;28;20044;-72
2024/03/17 18:45:53;;;;;;;4.63;2.35;;;8.50;76.30;;;;;;5012060;28;20050;-71
2024/03/17 18:48:39;;;;;;;4.78;2.33;;;8.50;76.50;;;;;;5013333;27;20046;-71
2024/03/17 18:51:25;;;;;;;4.65;2.40;;;8.40;76.50;;;;;;5024123;28;20049;-71
2024/03/17 18:54:11;;;;;;;6.43;2.83;;;8.30;76.70;;;;;;5017171;28;20579;-63
2024/03/17 18:56:59;;;;;;;5.20;2.78;;;8.30;76.90;;;;;;4996737;28;20053;-62
2024/03/17 18:59:44;;;;;;;6.10;2.97;;;8.20;77.00;;;;;;5013350;28;20034;-62
2024/03/17 19:02:32;;;;;;;5.97;2.97;;;8.10;77.20;;;;;;5053207;28;20038;-61
2024/03/17 19:05:18;;;;;;;4.57;2.72;;;8.10;77.40;;;;;;5016182;28;20056;-62
2024/03/17 19:08:04;;;;;;;4.10;2.42;;;8.00;77.60;;;;;;5024178;28;20042;-62
2024/03/17 19:10:52;;;;;;;4.72;2.30;;;8.00;78.00;;;;;;5019910;28;22060;-62
2024/03/17 19:13:39;;;;;;;5.22;2.95;;;8.00;78.30;;;;;;5013827;28;20041;-62
2024/03/17 19:16:25;;;;;;;8.90;3.22;;;7.90;78.50;;;;;;5015430;28;20118;-62
2024/03/17 19:19:11;;;;;;;5.00;2.53;;;7.80;78.70;;;;;;5060611;27;20049;-61
2024/03/17 19:22:04;;;;;;;7.05;2.90;;;7.80;78.90;;;;;;5015844;28;20037;-60
2024/03/17 19:24:54;;;;;;;4.50;2.05;;;7.70;79.10;;;;;;5021565;28;20080;-61
2024/03/17 19:27:40;;;;;;;5.10;2.53;;;7.70;79.40;;;;;;5024890;28;20064;-61
2024/03/17 19:30:26;;;;;;;4.75;2.05;;;7.60;79.60;;;;;;5026576;28;20050;-61
2024/03/17 19:33:12;;;;;;;3.80;1.95;;;7.50;79.80;;;;;;5017838;28;20116;-61
2024/03/17 19:35:58;;;;;;;4.38;2.03;;;7.50;80.00;;;;;;5031234;27;20048;-61
2024/03/17 19:38:46;;;;;;;3.08;1.95;;;7.40;80.20;;;;;;5079108;28;20045;-63
2024/03/17 19:41:32;;;;;;;2.35;1.50;;;7.40;80.80;;;;;;5026749;28;20049;-60
2024/03/17 19:44:18;;;;;;;6.70;2.50;;;7.30;80.90;;;;;;5018507;28;20046;-62
2024/03/17 19:47:04;;;;;;;5.05;2.33;;;7.30;81.10;;;;;;5028639;28;20041;-61